createdAt,value
2022-09-27T00:02:57.991Z,6.03
2022-09-27T00:07:57.513Z,6.30
2022-09-27T00:12:56.799Z,6.28
2022-09-27T00:17:57.071Z,5.97
2022-09-27T00:22:55.954Z,5.40
2022-09-27T00:27:54.821Z,5.72
2022-09-27T00:32:53.902Z,5.65
2022-09-27T00:37:54.187Z,5.55
2022-09-27T00:42:52.991Z,6.18
2022-09-27T00:47:56.308Z,6.65
2022-09-27T00:53:05.725Z,5.63
2022-09-27T00:58:06.364Z,6.55
2022-09-27T01:03:11.533Z,6.40
2022-09-27T01:08:11.710Z,6.45
2022-09-27T01:13:18.183Z,6.18
2022-09-27T01:18:32.412Z,5.95
2022-09-27T01:23:57.999Z,6.65
2022-09-27T01:29:02.526Z,6.03
2022-09-27T01:34:07.437Z,5.65
2022-09-27T01:39:20.433Z,5.20
2022-09-27T01:44:52.006Z,5.65
2022-09-27T01:50:02.464Z,5.43
2022-09-27T01:55:08.147Z,6.13
2022-09-27T02:00:22.209Z,5.63
2022-09-27T02:05:25.111Z,5.57
2022-09-27T02:10:31.625Z,5.78
2022-09-27T02:15:43.434Z,5.82
2022-09-27T02:20:59.988Z,6.10
2022-09-27T02:26:01.383Z,6.05
2022-09-27T02:31:01.798Z,6.55
2022-09-27T02:36:07.450Z,5.57
2022-09-27T02:41:14.624Z,6.07
2022-09-27T02:46:29.659Z,5.55
2022-09-27T02:51:44.534Z,6.18
2022-09-27T02:56:52.814Z,6.45
2022-09-27T03:02:24.871Z,6.30
2022-09-27T03:07:44.451Z,6.57
2022-09-27T03:12:44.470Z,6.15
2022-09-27T03:17:43.672Z,5.88
2022-09-27T03:23:04.260Z,6.45
2022-09-27T03:28:03.623Z,5.65
2022-09-27T03:33:03.556Z,6.10
2022-09-27T03:38:29.760Z,5.63
2022-09-27T03:43:28.767Z,5.38
2022-09-27T03:48:31.511Z,6.18
2022-09-27T03:53:31.856Z,5.80
2022-09-27T03:58:30.997Z,5.80
2022-09-27T04:03:30.215Z,6.10
2022-09-27T04:09:02.795Z,7.63
2022-09-27T04:14:18.766Z,6.10
2022-09-27T04:19:38.211Z,6.80
2022-09-27T04:24:43.205Z,5.88
2022-09-27T04:30:00.155Z,5.72
2022-09-27T04:35:36.875Z,6.90
2022-09-27T04:40:42.223Z,7.22
2022-09-27T04:45:42.058Z,7.63
2022-09-27T04:50:41.455Z,7.28
2022-09-27T04:55:41.940Z,6.82
2022-09-27T05:00:42.386Z,11.50
2022-09-27T05:06:01.325Z,10.35
2022-09-27T05:11:01.620Z,9.32
2022-09-27T05:16:05.354Z,6.95
2022-09-27T05:21:33.239Z,8.73
2022-09-27T05:26:33.670Z,9.98
2022-09-27T05:31:32.591Z,6.53
2022-09-27T05:36:32.593Z,6.20
2022-09-27T05:41:32.960Z,6.80
2022-09-27T05:46:33.618Z,6.28
2022-09-27T05:51:33.119Z,6.50
2022-09-27T05:56:32.125Z,6.07
2022-09-27T06:01:58.420Z,5.72
2022-09-27T06:07:35.899Z,7.53
2022-09-27T06:12:38.616Z,8.10
2022-09-27T06:17:48.621Z,13.70
2022-09-27T06:22:54.218Z,8.13
2022-09-27T06:27:55.123Z,9.07
2022-09-27T06:33:00.589Z,7.88
2022-09-27T06:38:07.248Z,7.70
2022-09-27T06:43:08.537Z,6.82
2022-09-27T06:48:43.756Z,6.68
2022-09-27T06:53:47.076Z,7.03
2022-09-27T06:59:03.541Z,7.38
2022-09-27T07:04:24.087Z,10.60
2022-09-27T07:09:32.089Z,13.38
2022-09-27T07:14:30.926Z,10.02
2022-09-27T07:19:31.486Z,10.02
2022-09-27T07:24:30.579Z,8.93
2022-09-27T07:29:30.450Z,9.93
2022-09-27T07:34:34.762Z,9.88
2022-09-27T07:39:35.281Z,6.93
2022-09-27T07:44:34.604Z,6.57
2022-09-27T07:50:04.003Z,5.80
2022-09-27T07:55:25.791Z,4.97
2022-09-27T08:00:30.006Z,5.32
2022-09-27T08:05:30.369Z,5.43
2022-09-27T08:10:31.846Z,4.57
2022-09-27T08:15:33.114Z,5.22
2022-09-27T08:20:33.343Z,8.40
2022-09-27T08:25:59.464Z,7.43
2022-09-27T08:31:01.140Z,7.25
2022-09-27T08:36:01.924Z,6.88
2022-09-27T08:41:08.142Z,7.05
2022-09-27T08:46:24.614Z,5.95
2022-09-27T08:51:33.083Z,8.57
2022-09-27T08:56:33.377Z,6.75
2022-09-27T09:01:33.854Z,7.87
2022-09-27T09:06:50.768Z,6.60
2022-09-27T09:12:19.270Z,7.20
2022-09-27T09:17:31.994Z,6.97
2022-09-27T09:23:06.575Z,6.95
2022-09-27T09:28:22.261Z,7.40
2022-09-27T09:33:26.629Z,6.78
2022-09-27T09:38:35.811Z,6.28
2022-09-27T09:43:40.661Z,5.90
2022-09-27T09:48:46.987Z,6.55
2022-09-27T09:53:53.835Z,5.18
2022-09-27T09:59:02.414Z,5.88
2022-09-27T10:04:17.189Z,5.63
2022-09-27T10:09:24.030Z,6.03
2022-09-27T10:15:04.344Z,6.00
2022-09-27T10:20:04.861Z,4.43
2022-09-27T10:25:08.172Z,4.43
2022-09-27T10:30:28.966Z,4.45
2022-09-27T10:35:49.872Z,3.90
2022-09-27T10:41:23.331Z,4.13
2022-09-27T10:46:28.934Z,3.38
2022-09-27T10:51:39.875Z,4.10
2022-09-27T10:56:40.279Z,3.78
2022-09-27T11:01:46.069Z,4.32
2022-09-27T11:06:51.385Z,5.82
2022-09-27T11:11:52.250Z,5.00
2022-09-27T11:17:14.382Z,6.07
2022-09-27T11:22:44.937Z,6.35
2022-09-27T11:28:02.511Z,4.70
2022-09-27T11:33:26.061Z,4.60
2022-09-27T11:38:51.774Z,5.10
2022-09-27T11:44:02.849Z,5.25
2022-09-27T11:49:15.160Z,7.35
2022-09-27T11:54:31.873Z,5.80
2022-09-27T12:00:05.901Z,5.53
2022-09-27T12:05:31.390Z,5.35
2022-09-27T12:10:37.108Z,5.15
2022-09-27T12:15:40.979Z,5.07
2022-09-27T12:20:43.478Z,5.03
2022-09-27T12:25:47.004Z,4.60
2022-09-27T12:31:17.662Z,3.50
2022-09-27T12:36:24.638Z,3.10
2022-09-27T12:41:26.564Z,3.38
2022-09-27T12:46:58.715Z,3.00
2022-09-27T12:52:03.904Z,3.47
2022-09-27T12:57:13.622Z,3.08
2022-09-27T13:02:57.440Z,3.60
2022-09-27T13:08:19.761Z,3.30
2022-09-27T13:13:22.344Z,3.97
2022-09-27T13:18:32.108Z,3.55
2022-09-27T13:24:03.762Z,3.17
2022-09-27T13:29:39.560Z,2.80
2022-09-27T13:34:43.695Z,3.50
2022-09-27T13:40:11.821Z,2.97
2022-09-27T13:45:29.399Z,2.90
2022-09-27T13:50:47.496Z,2.90
2022-09-27T13:55:51.194Z,3.40
2022-09-27T14:00:59.813Z,8.20
2022-09-27T14:06:08.442Z,4.97
2022-09-27T14:11:15.493Z,3.55
2022-09-27T14:16:18.127Z,3.75
2022-09-27T14:21:23.966Z,2.83
2022-09-27T14:26:43.919Z,3.35
2022-09-27T14:31:42.913Z,4.15
2022-09-27T14:37:17.697Z,3.35
2022-09-27T14:42:33.032Z,3.72
2022-09-27T14:47:31.986Z,6.07
2022-09-27T14:52:33.270Z,6.72
2022-09-27T14:57:35.460Z,6.38
2022-09-27T15:02:34.628Z,5.93
2022-09-27T15:07:33.468Z,5.20
2022-09-27T15:12:35.712Z,5.60
2022-09-27T15:17:43.549Z,6.43
2022-09-27T15:22:45.035Z,5.97
2022-09-27T15:27:49.194Z,6.63
2022-09-27T15:32:53.544Z,6.68
2022-09-27T15:37:53.043Z,9.10
2022-09-27T15:42:58.649Z,6.90
2022-09-27T15:47:57.535Z,6.57
2022-09-27T15:52:57.672Z,5.45
2022-09-27T15:58:02.192Z,7.60
2022-09-27T16:03:01.102Z,8.05
2022-09-27T16:08:00.120Z,6.35
2022-09-27T16:13:00.262Z,3.45
2022-09-27T16:17:58.984Z,4.00
2022-09-27T16:22:58.090Z,7.25
2022-09-27T16:28:00.441Z,8.07
2022-09-27T16:32:59.684Z,7.85
2022-09-27T16:37:59.030Z,7.97
2022-09-27T16:42:59.306Z,8.18
2022-09-27T16:47:58.027Z,7.15
2022-09-27T16:52:57.047Z,8.18
2022-09-27T16:57:58.635Z,17.65
2022-09-27T17:02:58.721Z,15.80
2022-09-27T17:07:57.630Z,10.95
2022-09-27T17:12:57.331Z,13.95
2022-09-27T17:17:59.930Z,10.73
2022-09-27T17:22:59.067Z,8.68
2022-09-27T17:27:58.434Z,11.00
2022-09-27T17:32:58.204Z,14.55
2022-09-27T17:37:58.338Z,10.38
2022-09-27T17:42:57.244Z,8.75
2022-09-27T17:48:13.719Z,10.45
2022-09-27T17:53:14.003Z,10.68
2022-09-27T17:58:12.758Z,11.30
2022-09-27T18:03:11.583Z,9.63
2022-09-27T18:08:10.482Z,9.90
2022-09-27T18:13:12.964Z,10.40
2022-09-27T18:18:14.083Z,11.93
2022-09-27T18:23:12.894Z,10.38
2022-09-27T18:28:14.861Z,11.40
2022-09-27T18:33:15.746Z,9.30
2022-09-27T18:38:17.165Z,10.45
2022-09-27T18:43:18.615Z,10.20
2022-09-27T18:48:17.459Z,10.43
2022-09-27T18:53:16.160Z,9.95
2022-09-27T18:58:16.518Z,10.05
2022-09-27T19:03:17.214Z,8.90
2022-09-27T19:08:18.141Z,8.15
2022-09-27T19:13:16.964Z,9.68
2022-09-27T19:18:17.127Z,8.63
2022-09-27T19:23:15.874Z,9.05
2022-09-27T19:28:14.650Z,8.60
2022-09-27T19:33:15.450Z,9.52
2022-09-27T19:38:15.662Z,10.80
2022-09-27T19:43:14.337Z,10.10
2022-09-27T19:48:13.034Z,10.73
2022-09-27T19:53:12.118Z,11.45
2022-09-27T19:58:12.318Z,6.03
2022-09-27T20:03:11.021Z,2.80
2022-09-27T20:08:09.857Z,1.40
2022-09-27T20:13:08.581Z,1.20
2022-09-27T20:18:10.911Z,1.00
2022-09-27T20:23:09.658Z,1.50
2022-09-27T20:28:08.827Z,1.42
2022-09-27T20:33:26.366Z,1.30
2022-09-27T20:38:25.117Z,1.30
2022-09-27T20:43:26.519Z,1.20
2022-09-27T20:48:26.635Z,1.40
2022-09-27T20:53:26.932Z,1.40
2022-09-27T20:58:26.239Z,1.23
2022-09-27T21:03:26.507Z,1.33
2022-09-27T21:08:25.654Z,1.40
2022-09-27T21:13:24.401Z,1.45
2022-09-27T21:18:23.113Z,1.30
2022-09-27T21:23:23.334Z,1.38
2022-09-27T21:28:22.061Z,1.67
2022-09-27T21:33:20.906Z,1.70
2022-09-27T21:38:19.614Z,1.80
2022-09-27T21:43:19.751Z,2.17
2022-09-27T21:48:18.450Z,2.35
2022-09-27T21:53:17.350Z,2.08
2022-09-27T21:58:16.204Z,2.75
2022-09-27T22:03:16.412Z,3.25
2022-09-27T22:08:15.230Z,3.90
2022-09-27T22:13:14.191Z,4.25
2022-09-27T22:18:12.914Z,4.63
2022-09-27T22:23:13.492Z,5.45
2022-09-27T22:28:12.225Z,4.75
2022-09-27T22:33:10.977Z,5.88
2022-09-27T22:38:09.684Z,5.00
2022-09-27T22:43:09.983Z,5.00
2022-09-27T22:48:08.762Z,4.57
2022-09-27T22:53:08.043Z,4.57
2022-09-27T22:58:06.908Z,3.90
2022-09-27T23:03:07.082Z,4.45
2022-09-27T23:08:06.105Z,4.00
2022-09-27T23:13:05.261Z,3.30
2022-09-27T23:18:04.032Z,3.13
2022-09-27T23:23:04.128Z,3.05
2022-09-27T23:28:03.037Z,3.00
2022-09-27T23:33:01.869Z,2.47
2022-09-27T23:38:01.448Z,2.63
2022-09-27T23:43:01.650Z,2.80
2022-09-27T23:48:00.370Z,2.38
2022-09-27T23:52:59.604Z,2.83
2022-09-27T23:57:58.324Z,2.25
